Am Qui, Tennessee
Current Conditions -  °F | °C
As of 1:23 AM on Monday 22 Dec 2014 (Local Time) from KBNA Reporting Station
Broken Clouds Broken Clouds  
Wind Chill: 41°   Ceiling: 2500
Heat Index: 45°   Visibility: 10mi
Dew Point: 41°   Wind: 7mph
Humidity: 87%   Direction: 140°SE
Pressure: 29.99"   Gusts: NA
Location:  36.2555°N, 86.6973°W
Report Text: KBNA 220723Z 14006KT 10SM FEW016 BKN025 07/05 A2999 RMK AO2
Loading
Personal Weather Stations






























Interactive Weather Map New forecast layout! Learn more

10-Day Weather Forecast

Advertisements
Track Severe Weather on mobile